Cloudcroft, NM

2:49 AM MDT on October 23, 2014 (GMT -0600)
Cloudcroft Fire Station (82) | Change Station
CLOSE
Current Station
Personal Weather Station
Location: Cloudcroft, NM
Elevation: 8681 ft
Nearby Weather Stations

Elev 8681 ft 32.96 °N, 105.74 °W | Updated 7 seconds ago

Clear
Clear
38.5 °F
Feels Like 38 °F
N
0.0
Wind Variable Wind from North
Gusts 0.0 mph

Today
High -- | Low -- °F
--% Chance of Precip.
Yesterday
High -- | Low -- °F
Precip. -- in
7:13 AM 6:20 PM
Waning Crescent, 0% visible
Pressure 30.30 in
Visibility 10.0 miles
Clouds Clear
Windchill 38 °F
Dew Point 36 °F
Humidity 91%
Rainfall 0.00 in
Snow Depth Not available.
UV 0 out of 12
Pollen 5.50 out of 12
Air Quality Not available.
Flu Activity Sporadic
METAR KSRR 230935Z AUTO 23005KT 10SM CLR 09/04 A3030 RMK AO2

More Conditions Fewer Conditions

Pressure 30.30 in
Visibility 10.0 miles
Clouds Clear
Windchill 38 °F
Dew Point 36 °F
Humidity 91%
Rainfall 0.00 in
Snow Depth Not available.
UV 0 out of 12
Pollen 5.50 out of 12
Air Quality Not available.
Flu Activity Sporadic
METAR KSRR 230935Z AUTO 23005KT 10SM CLR 09/04 A3030 RMK AO2

More Conditions Fewer Conditions

10-Day Weather Forecast

Almanac

Astronomy

Oct. 23, 2014 Rise Set
Actual Time 7:13 AM MDT 6:20 PM MDT
Civil Twilight 6:48 AM MDT 6:45 PM MDT
Nautical Twilight 6:19 AM MDT 7:14 PM MDT
Astronomical Twilight 5:50 AM MDT 7:43 PM MDT
Moon 6:56 AM MDT 6:23 PM MDT
Length of Visible Light 11h 57m
Length of Day
11h 07m
Tomorrow will be 1m 52s shorter.
Waning Crescent, 0% of the Moon is Illuminated
Today
Waning Crescent
Oct 23
New
Oct 30
First Quarter
Nov 6
Full
Nov 14
Last Quarter

Today's Extremes

State Highs State Lows

Community

WunderPhotos

Upload Photos

1,764,197 photos uploaded!

Nearby

Snow Depth

Station Depth Elevation
Sierra Blanca 0 in 10280 ft
McKnight Cabin 0 in 9240 ft
Lookout Mountain 0 in 8500 ft
Signal Peak 0 in 8360 ft
Silver Creek Divide 1 in 9000 ft

Earthquake Activity

City Distance Mag. Time & Date
No recent earthquake activity has been reported nearby.
Minimum magnitude displayed is 2.5.

Coastal Water Temperatures

Place Temperature
No Stations Reporting

Nearby Weather Stations